Time;durP1;ratioP1;P1;durP2;ratioP2;P2;SDS_P1;SDS_P2;PMS_P1;PMS_P2;Temp;Humidity;BMP_temperature;BMP_pressure;BME280_temperature;BME280_humidity;BME280_pressure;Samples;Min_cycle;Max_cycle;Signal;HPM_P1;HPM_P2
2023/03/07 00:00:31;;;;;;;34.70;26.40;;;1.90;99.90;;;;;;4940245;28;20223;-45
2023/03/07 00:02:57;;;;;;;35.13;26.77;;;1.90;99.90;;;;;;4939771;28;20266;-49
2023/03/07 00:05:22;;;;;;;35.97;28.43;;;1.80;99.90;;;;;;4939639;28;20216;-47
2023/03/07 00:07:48;;;;;;;34.60;26.83;;;1.80;99.90;;;;;;4939826;28;20192;-47
2023/03/07 00:10:13;;;;;;;34.23;27.10;;;1.70;99.90;;;;;;4938876;28;20196;-48
2023/03/07 00:12:39;;;;;;;33.33;25.80;;;1.70;99.90;;;;;;4940313;28;20207;-48
2023/03/07 00:15:06;;;;;;;35.23;27.60;;;1.70;99.90;;;;;;4939667;29;20231;-48
2023/03/07 00:17:35;;;;;;;34.35;27.80;;;1.70;99.90;;;;;;4969078;28;20436;-46
2023/03/07 00:20:01;;;;;;;33.92;27.63;;;1.70;99.90;;;;;;4937463;28;20192;-49
2023/03/07 00:22:26;;;;;;;35.33;27.80;;;1.70;99.90;;;;;;4938593;28;20185;-47
2023/03/07 00:24:52;;;;;;;35.27;27.40;;;1.70;99.90;;;;;;4940182;28;20212;-47
2023/03/07 00:27:18;;;;;;;41.33;28.03;;;1.60;99.90;;;;;;4939809;28;20612;-47
2023/03/07 00:29:43;;;;;;;35.17;28.63;;;1.70;99.90;;;;;;4939544;28;20192;-51
2023/03/07 00:32:09;;;;;;;37.37;28.23;;;1.70;99.90;;;;;;4939277;28;20193;-47
2023/03/07 00:34:35;;;;;;;36.07;29.40;;;1.70;99.90;;;;;;4939594;29;20212;-48
2023/03/07 00:37:00;;;;;;;36.87;28.70;;;1.70;99.90;;;;;;4939858;28;20188;-44
2023/03/07 00:39:26;;;;;;;36.77;29.33;;;1.70;99.90;;;;;;4939940;28;20208;-44
2023/03/07 00:41:51;;;;;;;33.97;27.57;;;1.70;99.90;;;;;;4939812;29;20553;-44
2023/03/07 00:44:17;;;;;;;37.47;29.20;;;1.70;99.90;;;;;;4940333;28;20200;-46
2023/03/07 00:46:42;;;;;;;35.50;29.30;;;1.80;99.90;;;;;;4939689;28;20251;-44
2023/03/07 00:49:08;;;;;;;37.50;28.63;;;1.80;99.90;;;;;;4938228;29;20193;-44
2023/03/07 00:51:33;;;;;;;34.83;28.20;;;1.90;99.90;;;;;;4941099;28;20271;-46
2023/03/07 00:53:59;;;;;;;31.80;27.60;;;2.00;99.90;;;;;;4939557;28;20905;-45
2023/03/07 00:56:25;;;;;;;34.77;28.00;;;2.00;99.90;;;;;;4931191;28;20299;-44
2023/03/07 00:58:51;;;;;;;35.80;27.93;;;2.00;99.90;;;;;;4939048;28;20211;-47
2023/03/07 01:01:23;;;;;;;34.08;27.92;;;2.00;99.90;;;;;;4939166;29;20460;-44
2023/03/07 01:03:52;;;;;;;33.95;26.40;;;2.10;99.90;;;;;;4936440;28;20201;-49
2023/03/07 01:06:20;;;;;;;34.90;27.75;;;2.10;99.90;;;;;;4931556;29;20189;-47
2023/03/07 01:08:46;;;;;;;31.23;26.17;;;2.00;99.90;;;;;;4940386;28;20185;-46
2023/03/07 01:11:12;;;;;;;33.57;26.87;;;2.00;99.90;;;;;;4939303;28;20206;-50
2023/03/07 01:13:38;;;;;;;31.73;26.33;;;2.10;99.90;;;;;;4938694;28;20990;-45
2023/03/07 01:16:19;;;;;;;28.13;25.13;;;2.00;99.90;;;;;;4939146;28;20411;-48
2023/03/07 01:18:48;;;;;;;32.40;26.40;;;2.00;99.90;;;;;;4938177;28;20480;-46
2023/03/07 01:21:19;;;;;;;32.25;25.73;;;2.00;99.90;;;;;;4939197;29;20223;-45
2023/03/07 01:23:45;;;;;;;32.40;26.27;;;2.00;99.90;;;;;;4938593;28;20712;-44
2023/03/07 01:26:23;;;;;;;28.60;24.60;;;2.00;99.90;;;;;;4939580;28;20193;-45
2023/03/07 01:28:50;;;;;;;32.72;25.75;;;2.00;99.90;;;;;;4938877;28;20807;-46
2023/03/07 01:31:16;;;;;;;37.65;27.60;;;2.00;99.90;;;;;;4939236;29;20200;-45
2023/03/07 01:33:42;;;;;;;33.30;25.50;;;2.00;99.90;;;;;;4940382;28;20220;-45
2023/03/07 01:36:20;;;;;;;30.63;26.63;;;2.00;99.90;;;;;;4942103;28;20637;-44
2023/03/07 01:38:48;;;;;;;31.30;25.38;;;2.10;99.90;;;;;;4942762;28;20200;-48
2023/03/07 01:41:15;;;;;;;32.15;24.90;;;2.00;99.90;;;;;;4942267;29;20194;-46
2023/03/07 01:43:41;;;;;;;30.30;23.67;;;2.10;99.90;;;;;;4941668;28;20192;-48
2023/03/07 01:46:23;;;;;;;33.25;26.00;;;2.10;99.90;;;;;;4942232;29;20325;-45
2023/03/07 01:49:29;;;;;;;27.80;24.65;;;2.20;99.90;;;;;;4942716;28;20193;-46
2023/03/07 01:52:08;;;;;;;30.23;25.25;;;2.10;99.90;;;;;;4943565;28;20188;-45
2023/03/07 01:54:38;;;;;;;30.88;25.67;;;2.20;99.90;;;;;;4943363;28;20296;-49
2023/03/07 01:57:04;;;;;;;28.73;25.45;;;2.20;99.90;;;;;;4942009;29;20196;-43
2023/03/07 01:59:34;;;;;;;29.38;24.75;;;2.30;99.90;;;;;;4943278;28;20178;-49
2023/03/07 02:02:05;;;;;;;29.15;23.95;;;2.30;99.90;;;;;;4941920;28;20191;-47
2023/03/07 02:05:08;;;;;;;28.30;24.67;;;2.20;99.90;;;;;;4941197;28;20188;-46
2023/03/07 02:07:40;;;;;;;29.45;24.75;;;2.30;99.90;;;;;;4943085;28;20212;-49
2023/03/07 02:10:06;;;;;;;29.60;23.90;;;2.30;99.90;;;;;;4943209;28;20189;-45
2023/03/07 02:12:33;;;;;;;26.67;23.80;;;2.30;99.90;;;;;;4943313;28;20223;-50
2023/03/07 02:14:59;;;;;;;26.52;23.10;;;2.30;99.90;;;;;;4940474;29;20299;-45
2023/03/07 02:17:26;;;;;;;29.93;24.50;;;2.40;99.90;;;;;;4941591;28;20189;-49
2023/03/07 02:20:19;;;;;;;27.92;23.50;;;2.30;99.90;;;;;;4941110;28;20445;-49
2023/03/07 02:22:48;;;;;;;28.27;23.70;;;2.30;99.90;;;;;;4941860;28;20276;-50
2023/03/07 02:25:46;;;;;;;28.58;23.35;;;2.30;99.90;;;;;;4942803;28;20189;-46
2023/03/07 02:28:14;;;;;;;26.15;23.38;;;2.20;99.90;;;;;;4954548;28;20215;-46
2023/03/07 02:30:54;;;;;;;26.50;23.60;;;2.20;99.90;;;;;;4942524;28;20208;-47
2023/03/07 02:33:23;;;;;;;27.30;23.90;;;2.20;99.90;;;;;;4939560;29;20195;-46
2023/03/07 02:35:58;;;;;;;25.48;22.70;;;2.20;99.90;;;;;;4938581;28;20213;-47
2023/03/07 02:38:25;;;;;;;26.30;23.40;;;2.10;99.90;;;;;;4930779;28;20195;-44
2023/03/07 02:40:54;;;;;;;26.77;23.63;;;2.10;99.90;;;;;;4940838;28;20181;-48
2023/03/07 02:43:20;;;;;;;29.70;24.55;;;2.10;99.90;;;;;;4941216;29;20281;-50
2023/03/07 02:45:46;;;;;;;23.35;20.85;;;2.10;99.90;;;;;;4940968;28;20225;-46
2023/03/07 02:48:11;;;;;;;25.83;23.13;;;2.10;99.90;;;;;;4940807;28;20271;-44
2023/03/07 02:50:37;;;;;;;26.03;23.03;;;2.00;99.90;;;;;;4941145;29;20253;-44
2023/03/07 02:53:03;;;;;;;29.30;23.60;;;2.00;99.90;;;;;;4940984;28;20211;-46
2023/03/07 02:55:29;;;;;;;26.10;23.40;;;2.00;99.90;;;;;;4940654;28;20224;-48
2023/03/07 02:57:55;;;;;;;26.67;23.03;;;2.00;99.90;;;;;;4940903;28;20938;-49
2023/03/07 03:00:21;;;;;;;29.23;23.50;;;2.00;99.90;;;;;;4942232;28;21032;-45
2023/03/07 03:02:46;;;;;;;28.10;24.17;;;2.00;99.90;;;;;;4940717;28;20196;-46
2023/03/07 03:05:12;;;;;;;25.03;22.33;;;2.00;99.90;;;;;;4940607;29;20460;-48
2023/03/07 03:07:37;;;;;;;29.03;23.10;;;2.00;99.90;;;;;;4939804;28;20196;-48
2023/03/07 03:10:03;;;;;;;25.63;22.80;;;2.00;99.90;;;;;;4941214;28;20603;-45
2023/03/07 03:12:29;;;;;;;26.50;22.50;;;2.00;99.90;;;;;;4940184;28;20207;-43
2023/03/07 03:14:55;;;;;;;26.97;22.93;;;2.00;99.90;;;;;;4940711;28;20212;-43
2023/03/07 03:17:20;;;;;;;27.60;23.70;;;2.00;99.90;;;;;;4942048;28;20462;-45
2023/03/07 03:19:46;;;;;;;23.97;21.30;;;2.00;99.90;;;;;;4940692;29;20201;-46
2023/03/07 03:22:12;;;;;;;26.27;23.40;;;2.00;99.90;;;;;;4939875;28;20265;-46
2023/03/07 03:24:39;;;;;;;24.17;21.57;;;1.90;99.90;;;;;;4940250;28;20609;-45
2023/03/07 03:27:05;;;;;;;27.92;24.13;;;1.90;99.90;;;;;;4940290;28;20196;-44
2023/03/07 03:29:31;;;;;;;24.57;21.80;;;1.80;99.90;;;;;;4940742;28;20250;-48
2023/03/07 03:31:57;;;;;;;25.50;22.70;;;1.80;99.90;;;;;;4940539;28;20459;-45
2023/03/07 03:34:22;;;;;;;27.07;23.23;;;1.80;99.90;;;;;;4940086;28;20214;-48
2023/03/07 03:36:48;;;;;;;27.23;22.70;;;1.80;99.90;;;;;;4941788;28;20216;-46
2023/03/07 03:39:14;;;;;;;24.20;21.43;;;1.90;99.90;;;;;;4940424;29;20666;-48
2023/03/07 03:41:40;;;;;;;25.27;22.47;;;1.80;99.90;;;;;;4941012;28;20443;-46
2023/03/07 03:44:05;;;;;;;28.70;23.60;;;1.80;99.90;;;;;;4939316;28;20207;-49
2023/03/07 03:46:31;;;;;;;26.40;23.10;;;1.80;99.90;;;;;;4941255;28;20483;-47
2023/03/07 03:48:56;;;;;;;25.63;21.03;;;1.80;99.90;;;;;;4940176;29;20213;-45
2023/03/07 03:51:23;;;;;;;26.67;22.13;;;1.80;99.90;;;;;;4941383;28;20322;-44
2023/03/07 03:53:49;;;;;;;24.10;21.60;;;1.80;99.90;;;;;;4938323;28;20204;-46
2023/03/07 03:56:17;;;;;;;25.58;22.67;;;1.80;99.90;;;;;;4939519;28;20270;-45
2023/03/07 03:58:50;;;;;;;25.15;22.48;;;1.70;99.90;;;;;;4939979;28;20188;-46
2023/03/07 04:01:16;;;;;;;25.60;22.83;;;1.70;99.90;;;;;;4939930;29;20176;-44
2023/03/07 04:03:44;;;;;;;27.05;22.75;;;1.60;99.90;;;;;;4940096;28;20192;-50
2023/03/07 04:06:13;;;;;;;24.90;22.30;;;1.60;99.90;;;;;;4940077;28;20200;-50
2023/03/07 04:08:39;;;;;;;24.80;21.83;;;1.60;99.90;;;;;;4940941;28;20195;-46
2023/03/07 04:11:05;;;;;;;25.98;23.38;;;1.50;99.90;;;;;;4939846;29;20689;-45
2023/03/07 04:13:34;;;;;;;25.30;22.37;;;1.50;99.90;;;;;;4940158;28;20192;-50
2023/03/07 04:16:00;;;;;;;24.50;21.98;;;1.50;99.90;;;;;;4939771;29;20240;-48
2023/03/07 04:18:26;;;;;;;25.60;22.90;;;1.50;99.90;;;;;;4938290;28;20271;-48
2023/03/07 04:20:52;;;;;;;25.63;23.02;;;1.50;99.90;;;;;;4940143;28;20196;-48
2023/03/07 04:23:20;;;;;;;26.13;22.23;;;1.50;99.90;;;;;;4940674;28;20184;-50
2023/03/07 04:25:49;;;;;;;23.63;21.13;;;1.40;99.90;;;;;;4939657;29;20953;-49
2023/03/07 04:28:16;;;;;;;23.40;21.05;;;1.40;99.90;;;;;;4940434;28;20540;-44
2023/03/07 04:30:42;;;;;;;25.85;22.75;;;1.40;99.90;;;;;;4939771;29;20196;-50
2023/03/07 04:33:08;;;;;;;26.20;22.88;;;1.40;99.90;;;;;;4938138;28;20212;-44
2023/03/07 04:35:34;;;;;;;27.00;24.10;;;1.40;99.90;;;;;;4939507;29;20208;-47
2023/03/07 04:37:59;;;;;;;28.07;24.03;;;1.40;99.90;;;;;;4938209;28;20184;-45
2023/03/07 04:40:25;;;;;;;26.03;23.13;;;1.40;99.90;;;;;;4939685;29;20419;-44
2023/03/07 04:42:50;;;;;;;27.40;24.20;;;1.40;99.90;;;;;;4940510;28;20188;-46
2023/03/07 04:45:16;;;;;;;26.87;23.00;;;1.40;99.90;;;;;;4939705;29;20197;-45
2023/03/07 04:47:42;;;;;;;26.47;23.67;;;1.50;99.90;;;;;;4937986;28;20227;-43
2023/03/07 04:50:08;;;;;;;27.03;24.13;;;1.40;99.90;;;;;;4939446;28;20235;-46
2023/03/07 04:52:34;;;;;;;28.40;23.95;;;1.50;99.90;;;;;;4938994;28;20191;-45
2023/03/07 04:55:00;;;;;;;31.77;25.40;;;1.50;99.90;;;;;;4939489;28;20212;-45
2023/03/07 04:57:25;;;;;;;27.53;24.50;;;1.60;99.90;;;;;;4939007;28;20996;-44
2023/03/07 04:59:51;;;;;;;27.43;23.37;;;1.60;99.90;;;;;;4940652;28;20219;-50
2023/03/07 05:02:17;;;;;;;26.83;23.93;;;1.60;99.90;;;;;;4939874;28;20192;-44
2023/03/07 05:04:42;;;;;;;28.07;24.30;;;1.70;99.90;;;;;;4939364;29;20188;-47
2023/03/07 05:07:08;;;;;;;26.00;22.90;;;1.70;99.90;;;;;;4939919;28;20979;-46
2023/03/07 05:09:33;;;;;;;26.30;23.00;;;1.80;99.90;;;;;;4941007;28;20622;-45
2023/03/07 05:11:59;;;;;;;27.40;24.13;;;1.80;99.90;;;;;;4942382;28;20358;-49
2023/03/07 05:14:25;;;;;;;27.90;22.80;;;1.80;99.90;;;;;;4941703;28;20657;-47
2023/03/07 05:16:50;;;;;;;27.37;24.20;;;1.90;99.90;;;;;;4943847;28;20980;-45
2023/03/07 05:19:16;;;;;;;25.03;22.10;;;1.90;99.90;;;;;;4941747;28;21341;-50
2023/03/07 05:21:43;;;;;;;27.63;24.57;;;2.00;99.90;;;;;;4942426;29;20235;-49
2023/03/07 05:24:09;;;;;;;27.95;24.88;;;2.10;99.90;;;;;;4942574;28;20678;-44
2023/03/07 05:26:35;;;;;;;28.75;25.65;;;2.10;99.90;;;;;;4941640;29;20234;-46
2023/03/07 05:29:00;;;;;;;26.77;23.90;;;2.20;99.90;;;;;;4943246;28;20586;-47
2023/03/07 05:31:26;;;;;;;26.43;23.73;;;2.20;99.90;;;;;;4945514;28;20459;-49
2023/03/07 05:33:52;;;;;;;29.20;24.00;;;2.30;99.90;;;;;;4942377;28;20250;-47
2023/03/07 05:36:18;;;;;;;27.70;24.20;;;2.40;99.90;;;;;;4942475;29;20283;-47
2023/03/07 05:38:43;;;;;;;26.33;23.53;;;2.40;99.90;;;;;;4942179;29;20192;-45
2023/03/07 05:41:09;;;;;;;23.57;21.07;;;2.40;99.90;;;;;;4941962;28;20642;-50
2023/03/07 05:43:35;;;;;;;26.57;22.80;;;2.40;99.90;;;;;;4942038;28;20189;-48
2023/03/07 05:46:00;;;;;;;24.70;20.80;;;2.50;99.90;;;;;;4941498;28;20215;-45
2023/03/07 05:48:26;;;;;;;25.17;22.47;;;2.50;99.90;;;;;;4939736;28;20448;-46
2023/03/07 05:50:51;;;;;;;25.40;22.70;;;2.50;99.90;;;;;;4942267;28;20219;-45
2023/03/07 05:53:17;;;;;;;24.43;21.93;;;2.60;99.90;;;;;;4941636;28;20225;-46
2023/03/07 05:55:43;;;;;;;22.50;20.43;;;2.60;99.90;;;;;;4941523;29;20300;-49
2023/03/07 05:58:09;;;;;;;22.02;19.88;;;2.70;99.90;;;;;;4940101;28;20463;-46
2023/03/07 06:00:35;;;;;;;21.13;18.93;;;2.80;99.90;;;;;;4941890;28;20185;-43
2023/03/07 06:03:02;;;;;;;22.07;19.70;;;2.80;99.90;;;;;;4942145;29;20654;-49
2023/03/07 06:05:27;;;;;;;22.20;19.60;;;2.80;99.90;;;;;;4942476;28;20475;-45
2023/03/07 06:07:53;;;;;;;21.60;19.43;;;2.80;99.90;;;;;;4940217;28;20660;-46
2023/03/07 06:10:19;;;;;;;22.70;19.70;;;2.80;99.90;;;;;;4936445;28;20197;-49
2023/03/07 06:12:52;;;;;;;21.88;19.77;;;2.90;99.90;;;;;;4941789;28;20196;-45
2023/03/07 06:15:18;;;;;;;25.45;21.95;;;2.90;99.90;;;;;;4940195;28;20224;-47
2023/03/07 06:17:51;;;;;;;21.60;19.40;;;3.00;99.90;;;;;;4940839;28;20232;-46
2023/03/07 06:20:19;;;;;;;21.38;19.38;;;3.00;99.90;;;;;;4937434;28;20228;-44
2023/03/07 06:22:45;;;;;;;21.38;19.15;;;3.00;99.90;;;;;;4939948;28;20636;-51
2023/03/07 06:25:11;;;;;;;19.65;17.75;;;3.10;99.90;;;;;;4939508;29;20196;-47
2023/03/07 06:27:37;;;;;;;20.05;17.95;;;3.20;99.90;;;;;;4939013;28;20193;-45
2023/03/07 06:30:05;;;;;;;20.58;18.45;;;3.20;99.90;;;;;;4939337;28;20189;-51
2023/03/07 06:32:31;;;;;;;20.95;18.83;;;3.30;99.90;;;;;;4940083;29;20192;-48
2023/03/07 06:34:57;;;;;;;22.58;19.90;;;3.40;99.90;;;;;;4939730;28;20210;-48
2023/03/07 06:37:23;;;;;;;19.13;17.25;;;3.60;99.90;;;;;;4935985;28;20675;-45
2023/03/07 06:39:49;;;;;;;19.13;17.27;;;3.70;99.90;;;;;;4938094;29;20181;-47
2023/03/07 06:42:14;;;;;;;17.97;16.27;;;3.80;99.90;;;;;;4937365;28;20807;-47
2023/03/07 06:44:40;;;;;;;17.30;15.60;;;3.90;99.90;;;;;;4938363;28;20640;-46
2023/03/07 06:47:06;;;;;;;17.53;15.77;;;3.90;99.90;;;;;;4936857;28;20526;-45
2023/03/07 06:49:31;;;;;;;17.03;15.37;;;4.00;99.90;;;;;;4938363;28;20196;-46
2023/03/07 06:51:57;;;;;;;17.30;15.67;;;4.00;99.90;;;;;;4938109;29;20177;-49
2023/03/07 06:54:23;;;;;;;17.40;15.90;;;4.00;99.90;;;;;;4939164;29;20276;-46
2023/03/07 06:56:48;;;;;;;17.20;15.70;;;4.10;99.90;;;;;;4937809;28;20217;-46
2023/03/07 06:59:18;;;;;;;18.47;16.67;;;4.20;99.90;;;;;;4940725;28;20648;-46
2023/03/07 07:01:44;;;;;;;17.55;16.02;;;4.30;99.90;;;;;;4938365;28;20691;-45
2023/03/07 07:04:10;;;;;;;17.70;16.17;;;4.20;99.90;;;;;;4940344;28;20201;-51
2023/03/07 07:06:36;;;;;;;18.70;17.00;;;4.20;99.90;;;;;;4939607;29;20368;-44
2023/03/07 07:09:03;;;;;;;18.27;16.53;;;4.20;99.90;;;;;;4940242;28;20723;-49
2023/03/07 07:11:28;;;;;;;16.17;14.73;;;4.20;99.90;;;;;;4939038;29;21138;-45
2023/03/07 07:13:54;;;;;;;17.47;15.97;;;4.20;99.90;;;;;;4939207;29;20192;-47
2023/03/07 07:16:19;;;;;;;18.10;16.50;;;4.30;99.90;;;;;;4939988;28;20213;-46
2023/03/07 07:18:45;;;;;;;18.00;16.30;;;4.30;99.90;;;;;;4940090;28;20240;-48
2023/03/07 07:21:11;;;;;;;17.10;15.60;;;4.40;99.90;;;;;;4940061;29;20305;-48
2023/03/07 07:23:36;;;;;;;17.47;15.87;;;4.40;99.90;;;;;;4936195;29;20185;-49
2023/03/07 07:26:02;;;;;;;18.00;16.40;;;4.50;99.90;;;;;;4937469;28;20228;-45
2023/03/07 07:28:29;;;;;;;16.98;15.48;;;4.60;99.90;;;;;;4938150;29;20248;-47
2023/03/07 07:30:54;;;;;;;17.90;16.20;;;4.60;99.90;;;;;;4934815;28;20608;-48
2023/03/07 07:33:20;;;;;;;16.90;15.33;;;4.80;99.90;;;;;;4935966;29;20239;-48
2023/03/07 07:35:46;;;;;;;17.20;15.70;;;4.80;99.90;;;;;;4937156;29;20600;-48
2023/03/07 07:38:12;;;;;;;16.13;14.77;;;4.70;99.90;;;;;;4937165;29;20193;-44
2023/03/07 07:40:39;;;;;;;15.95;14.60;;;4.80;99.90;;;;;;4937595;29;20182;-48
2023/03/07 07:43:04;;;;;;;17.40;15.90;;;4.80;99.90;;;;;;4937147;28;20240;-47
2023/03/07 07:45:30;;;;;;;16.87;15.27;;;4.80;99.90;;;;;;4938004;28;20268;-47
2023/03/07 07:47:56;;;;;;;16.37;14.77;;;4.80;99.90;;;;;;4937519;28;20193;-48
2023/03/07 07:50:22;;;;;;;16.37;14.87;;;4.90;99.90;;;;;;4939381;29;20193;-47
2023/03/07 07:52:48;;;;;;;16.38;15.00;;;4.90;99.90;;;;;;4937500;29;20213;-45
2023/03/07 07:55:14;;;;;;;16.97;15.57;;;4.80;99.90;;;;;;4934894;28;20953;-48
2023/03/07 07:57:41;;;;;;;17.40;15.90;;;4.80;99.90;;;;;;4936630;28;20469;-48
2023/03/07 08:00:09;;;;;;;16.50;15.10;;;4.70;99.90;;;;;;4937198;28;20527;-48
2023/03/07 08:02:36;;;;;;;18.85;17.25;;;4.60;99.90;;;;;;4937789;28;20525;-46
2023/03/07 08:05:03;;;;;;;16.48;15.15;;;4.50;99.90;;;;;;4938291;28;20634;-50
2023/03/07 08:07:29;;;;;;;16.65;15.27;;;4.60;99.90;;;;;;4939348;28;20189;-45
2023/03/07 08:09:55;;;;;;;16.90;15.43;;;4.60;99.90;;;;;;4939295;29;20871;-47
2023/03/07 08:12:20;;;;;;;16.00;14.70;;;4.60;99.90;;;;;;4938749;29;20200;-44
2023/03/07 08:14:46;;;;;;;17.43;16.03;;;4.60;99.90;;;;;;4938156;28;20666;-46
2023/03/07 08:17:11;;;;;;;15.90;14.57;;;4.60;99.90;;;;;;4938382;29;20385;-49
2023/03/07 08:19:37;;;;;;;16.43;15.17;;;4.70;99.90;;;;;;4937957;29;20237;-47
2023/03/07 08:22:03;;;;;;;16.10;14.90;;;4.70;99.90;;;;;;4938989;29;20751;-48
2023/03/07 08:24:31;;;;;;;16.60;15.30;;;4.70;99.90;;;;;;4938049;29;20200;-47
2023/03/07 08:26:57;;;;;;;16.63;15.23;;;4.80;99.90;;;;;;4937265;29;20185;-47
2023/03/07 08:29:22;;;;;;;16.87;15.40;;;4.80;99.90;;;;;;4937197;28;20251;-47
2023/03/07 08:31:50;;;;;;;16.73;15.40;;;4.90;99.90;;;;;;4937684;28;20193;-47
2023/03/07 08:34:17;;;;;;;16.33;15.07;;;4.90;99.90;;;;;;4937357;29;20322;-45
2023/03/07 08:36:42;;;;;;;16.63;15.32;;;5.00;99.90;;;;;;4937681;29;20324;-44
2023/03/07 08:39:08;;;;;;;16.70;15.50;;;5.00;99.90;;;;;;4937760;29;20235;-47
2023/03/07 08:41:33;;;;;;;15.93;14.60;;;5.10;99.90;;;;;;4938909;29;20181;-45
2023/03/07 08:43:59;;;;;;;14.73;13.60;;;5.00;99.90;;;;;;4941023;28;20181;-45
2023/03/07 08:46:25;;;;;;;15.63;14.33;;;5.00;99.90;;;;;;4942299;29;20648;-46
2023/03/07 08:48:51;;;;;;;15.03;13.97;;;5.10;99.90;;;;;;4942116;29;20428;-45
2023/03/07 08:51:17;;;;;;;15.40;14.27;;;5.20;99.90;;;;;;4942071;29;20246;-46
2023/03/07 08:53:43;;;;;;;15.60;14.50;;;5.30;99.90;;;;;;4942350;28;20603;-52
2023/03/07 08:56:11;;;;;;;15.75;14.55;;;5.40;99.90;;;;;;4942328;29;20599;-45
2023/03/07 08:58:37;;;;;;;14.30;13.30;;;5.50;99.90;;;;;;4942015;28;20238;-47
2023/03/07 09:01:05;;;;;;;15.35;14.15;;;5.70;99.90;;;;;;4942295;28;20181;-45
2023/03/07 09:03:30;;;;;;;15.20;14.00;;;5.70;99.90;;;;;;4942434;28;20181;-49
2023/03/07 09:05:56;;;;;;;14.57;13.47;;;5.80;99.90;;;;;;4944142;28;20246;-48
2023/03/07 09:08:21;;;;;;;14.33;13.37;;;5.70;99.90;;;;;;4943202;28;20193;-46
2023/03/07 09:10:47;;;;;;;14.40;13.40;;;5.90;99.90;;;;;;4943095;28;20197;-46
2023/03/07 09:13:13;;;;;;;14.43;13.43;;;5.90;99.90;;;;;;4941829;28;20652;-46
2023/03/07 09:15:39;;;;;;;14.00;13.03;;;6.00;99.90;;;;;;4942663;29;20217;-48
2023/03/07 09:18:05;;;;;;;13.40;12.60;;;6.00;99.90;;;;;;4942518;28;20256;-49
2023/03/07 09:20:31;;;;;;;14.07;13.18;;;5.90;99.90;;;;;;4941634;28;20578;-45
2023/03/07 09:22:57;;;;;;;13.23;12.33;;;5.90;99.90;;;;;;4942212;28;20200;-45
2023/03/07 09:25:22;;;;;;;14.18;13.20;;;6.00;99.90;;;;;;4942116;28;20678;-45
2023/03/07 09:27:48;;;;;;;13.10;12.20;;;6.00;99.90;;;;;;4942614;29;20185;-48
2023/03/07 09:30:15;;;;;;;13.87;12.87;;;6.20;99.90;;;;;;4942690;29;20177;-43
2023/03/07 09:32:41;;;;;;;12.90;12.10;;;6.20;99.90;;;;;;4942700;28;20338;-48
2023/03/07 09:35:07;;;;;;;12.93;12.05;;;6.20;99.90;;;;;;4941499;28;20344;-48
2023/03/07 09:37:33;;;;;;;13.00;12.10;;;6.10;99.90;;;;;;4941486;28;20177;-50
2023/03/07 09:39:59;;;;;;;13.60;12.60;;;6.20;99.90;;;;;;4942870;28;20234;-45
2023/03/07 09:42:41;;;;;;;14.70;13.70;;;6.30;99.90;;;;;;4942553;29;20442;-46
2023/03/07 09:45:44;;;;;;;12.52;11.73;;;6.30;99.90;;;;;;4943443;28;20228;-48
2023/03/07 09:48:31;;;;;;;13.73;12.77;;;6.30;99.90;;;;;;4942960;28;20547;-46
2023/03/07 09:51:08;;;;;;;14.57;13.48;;;6.30;99.90;;;;;;4941964;29;20243;-46
2023/03/07 09:53:41;;;;;;;14.93;13.73;;;6.30;99.90;;;;;;4943959;28;20261;-47
2023/03/07 09:56:15;;;;;;;14.68;13.65;;;6.20;99.90;;;;;;4941711;29;20254;-45
2023/03/07 09:58:50;;;;;;;14.38;13.38;;;6.30;99.90;;;;;;4943644;28;20204;-47
2023/03/07 10:01:21;;;;;;;14.80;13.68;;;6.50;99.90;;;;;;4941626;28;20188;-49
2023/03/07 10:04:16;;;;;;;14.30;13.40;;;6.40;99.90;;;;;;4941904;28;20181;-45
2023/03/07 10:06:44;;;;;;;13.90;12.90;;;6.50;99.90;;;;;;4942772;28;20213;-45
2023/03/07 10:09:17;;;;;;;14.65;13.65;;;6.40;99.90;;;;;;4941252;28;21299;-47
2023/03/07 10:12:07;;;;;;;14.52;13.52;;;6.50;99.90;;;;;;4943434;28;20229;-46
2023/03/07 10:15:17;;;;;;;14.65;13.65;;;6.60;99.90;;;;;;4941926;28;20196;-45
2023/03/07 10:17:51;;;;;;;14.13;13.13;;;6.70;99.90;;;;;;4950513;28;20615;-46
2023/03/07 10:20:44;;;;;;;15.00;13.93;;;6.70;99.90;;;;;;4941778;28;20264;-45
2023/03/07 10:23:35;;;;;;;15.45;14.25;;;6.70;99.90;;;;;;4941516;29;20320;-45
2023/03/07 10:26:09;;;;;;;15.32;14.25;;;6.80;99.90;;;;;;4942846;28;20277;-48
2023/03/07 10:28:38;;;;;;;15.17;14.00;;;6.90;99.90;;;;;;4941223;29;20180;-47
2023/03/07 10:31:15;;;;;;;13.73;12.82;;;6.80;99.90;;;;;;4943241;28;20456;-46
2023/03/07 10:33:44;;;;;;;15.10;14.00;;;6.90;99.90;;;;;;4941215;28;20208;-49
2023/03/07 10:36:20;;;;;;;14.73;13.63;;;7.00;99.90;;;;;;4940682;28;20213;-45
2023/03/07 10:38:56;;;;;;;15.27;14.07;;;7.00;99.90;;;;;;4935566;28;20429;-46
2023/03/07 10:41:22;;;;;;;15.60;14.43;;;7.00;99.90;;;;;;4932861;28;20448;-47
2023/03/07 10:43:50;;;;;;;14.53;13.40;;;7.00;99.90;;;;;;4940720;28;20186;-47
2023/03/07 10:46:22;;;;;;;14.33;13.30;;;7.10;99.90;;;;;;4939423;28;20426;-47
2023/03/07 10:48:51;;;;;;;14.80;13.80;;;7.10;99.90;;;;;;4942315;28;20474;-47
2023/03/07 10:51:36;;;;;;;15.30;14.10;;;7.20;99.90;;;;;;4941245;29;21078;-47
2023/03/07 10:54:04;;;;;;;12.13;11.23;;;7.30;99.50;;;;;;4942497;28;20498;-46
2023/03/07 10:56:30;;;;;;;15.47;14.37;;;7.40;99.10;;;;;;4940418;28;20468;-48
2023/03/07 10:59:02;;;;;;;15.20;14.00;;;7.50;99.40;;;;;;4940801;28;20468;-47
2023/03/07 11:01:30;;;;;;;14.33;13.33;;;7.60;98.60;;;;;;4940815;28;20185;-47
2023/03/07 11:03:59;;;;;;;14.23;13.00;;;7.80;98.10;;;;;;4940812;28;20952;-49
2023/03/07 11:06:33;;;;;;;14.90;13.80;;;8.00;96.90;;;;;;4940495;28;20445;-48
2023/03/07 11:09:25;;;;;;;14.33;13.30;;;7.90;95.50;;;;;;4941056;29;20896;-45
2023/03/07 11:11:55;;;;;;;14.23;13.23;;;8.00;95.90;;;;;;4941313;28;20454;-46
2023/03/07 11:14:21;;;;;;;14.87;13.77;;;8.10;95.60;;;;;;4941207;28;20990;-44
2023/03/07 11:16:54;;;;;;;14.57;13.43;;;8.20;93.70;;;;;;4940153;28;20505;-45
2023/03/07 11:19:42;;;;;;;15.17;14.07;;;8.50;93.00;;;;;;4939921;28;21182;-48
2023/03/07 11:22:17;;;;;;;14.90;13.80;;;8.40;92.50;;;;;;4937196;28;20455;-46
2023/03/07 11:24:58;;;;;;;14.23;13.23;;;8.40;92.20;;;;;;4938376;28;20433;-51
2023/03/07 11:27:45;;;;;;;15.17;14.07;;;8.40;91.60;;;;;;4940294;29;20407;-49
2023/03/07 11:30:34;;;;;;;15.00;14.00;;;8.70;91.90;;;;;;4941432;28;20866;-46
2023/03/07 11:33:24;;;;;;;14.20;13.10;;;8.80;90.10;;;;;;4939533;29;20432;-45
2023/03/07 11:36:06;;;;;;;14.33;13.33;;;8.90;89.40;;;;;;4938751;28;21193;-46
2023/03/07 11:38:41;;;;;;;14.03;13.10;;;8.70;89.00;;;;;;4940196;28;21110;-47
2023/03/07 11:41:10;;;;;;;14.90;13.90;;;8.90;89.90;;;;;;4939557;28;20452;-46
2023/03/07 11:43:47;;;;;;;15.10;14.10;;;9.00;88.30;;;;;;4939169;28;20436;-45
2023/03/07 11:46:37;;;;;;;16.40;15.20;;;9.20;87.00;;;;;;4939577;28;20439;-43
2023/03/07 11:49:40;;;;;;;14.07;13.17;;;9.30;84.40;;;;;;4939834;28;20435;-47
2023/03/07 11:52:37;;;;;;;15.47;14.37;;;9.30;82.70;;;;;;4938949;28;20443;-44
2023/03/07 11:55:18;;;;;;;15.73;14.53;;;9.10;85.20;;;;;;4939538;28;21621;-44
2023/03/07 11:58:15;;;;;;;14.77;13.67;;;8.50;87.70;;;;;;4939508;28;20433;-45
2023/03/07 12:01:09;;;;;;;13.23;12.37;;;8.30;89.40;;;;;;4941459;28;20453;-44
2023/03/07 12:03:43;;;;;;;14.27;13.27;;;8.00;89.90;;;;;;4938978;28;20446;-44
2023/03/07 12:06:32;;;;;;;14.73;13.83;;;7.70;90.70;;;;;;4939062;28;20436;-47
2023/03/07 12:09:18;;;;;;;14.57;13.47;;;7.70;91.30;;;;;;4939998;29;20517;-44
2023/03/07 12:11:52;;;;;;;13.80;12.80;;;7.70;91.00;;;;;;4939364;28;20536;-44
2023/03/07 12:14:35;;;;;;;13.00;12.10;;;7.80;90.60;;;;;;4939589;28;20923;-46
2023/03/07 12:17:03;;;;;;;13.80;12.90;;;7.70;90.30;;;;;;4939365;28;20531;-43
2023/03/07 12:20:15;;;;;;;14.60;13.40;;;7.90;90.80;;;;;;4939770;28;20484;-44
2023/03/07 12:23:02;;;;;;;12.87;11.80;;;8.00;90.50;;;;;;4938084;29;20449;-47
2023/03/07 12:25:39;;;;;;;14.87;13.77;;;8.10;89.80;;;;;;4939050;28;21328;-47
2023/03/07 12:28:21;;;;;;;11.60;10.60;;;8.10;87.50;;;;;;4939512;29;20424;-42
2023/03/07 12:31:15;;;;;;;14.60;13.60;;;7.90;87.90;;;;;;4937954;28;20440;-45
2023/03/07 12:34:02;;;;;;;14.30;13.30;;;8.00;88.50;;;;;;4929903;28;20456;-43
2023/03/07 12:36:55;;;;;;;14.40;13.40;;;8.00;89.60;;;;;;4936828;28;20471;-43
2023/03/07 12:39:35;;;;;;;14.90;13.87;;;8.00;89.70;;;;;;4940339;28;20418;-47
2023/03/07 12:42:08;;;;;;;13.93;12.93;;;8.20;90.00;;;;;;4938437;28;20449;-42
2023/03/07 12:44:37;;;;;;;15.57;14.40;;;8.10;86.40;;;;;;4939250;28;20439;-47
2023/03/07 12:47:40;;;;;;;14.70;13.60;;;8.20;88.20;;;;;;4941624;28;20417;-49
2023/03/07 12:50:14;;;;;;;14.97;13.97;;;8.10;85.60;;;;;;4939259;28;20544;-46